sensor_id;sensor_type;location;lat;lon;timestamp;temperature;humidity
45283;DHT22;31023;44.994;1.796;2024-02-26T00:01:55;8.20;99.90
45283;DHT22;31023;44.994;1.796;2024-02-26T00:04:21;8.20;99.90
45283;DHT22;31023;44.994;1.796;2024-02-26T00:06:47;8.20;99.90
45283;DHT22;31023;44.994;1.796;2024-02-26T00:09:15;8.20;99.90
45283;DHT22;31023;44.994;1.796;2024-02-26T00:11:41;8.20;99.90
45283;DHT22;31023;44.994;1.796;2024-02-26T00:14:06;8.20;99.90
45283;DHT22;31023;44.994;1.796;2024-02-26T00:16:32;8.20;99.90
45283;DHT22;31023;44.994;1.796;2024-02-26T00:18:58;8.20;99.90
45283;DHT22;31023;44.994;1.796;2024-02-26T00:21:23;8.10;99.90
45283;DHT22;31023;44.994;1.796;2024-02-26T00:23:49;8.10;99.90
45283;DHT22;31023;44.994;1.796;2024-02-26T00:26:15;8.10;99.90
45283;DHT22;31023;44.994;1.796;2024-02-26T00:28:41;8.10;99.90
45283;DHT22;31023;44.994;1.796;2024-02-26T00:31:06;8.10;99.90
45283;DHT22;31023;44.994;1.796;2024-02-26T00:33:32;8.00;99.90
45283;DHT22;31023;44.994;1.796;2024-02-26T00:35:57;8.00;99.90
45283;DHT22;31023;44.994;1.796;2024-02-26T00:38:23;8.00;99.90
45283;DHT22;31023;44.994;1.796;2024-02-26T00:40:48;8.00;99.90
45283;DHT22;31023;44.994;1.796;2024-02-26T00:43:14;7.90;99.90
45283;DHT22;31023;44.994;1.796;2024-02-26T00:45:39;7.90;99.90
45283;DHT22;31023;44.994;1.796;2024-02-26T00:48:05;7.90;99.90
45283;DHT22;31023;44.994;1.796;2024-02-26T00:50:31;7.80;99.90
45283;DHT22;31023;44.994;1.796;2024-02-26T00:52:57;7.80;99.90
45283;DHT22;31023;44.994;1.796;2024-02-26T00:55:22;7.80;99.90
45283;DHT22;31023;44.994;1.796;2024-02-26T00:57:48;7.80;99.90
45283;DHT22;31023;44.994;1.796;2024-02-26T01:00:13;7.80;99.90
45283;DHT22;31023;44.994;1.796;2024-02-26T01:02:39;7.80;99.90
45283;DHT22;31023;44.994;1.796;2024-02-26T01:05:07;7.80;99.90
45283;DHT22;31023;44.994;1.796;2024-02-26T01:07:34;7.70;99.90
45283;DHT22;31023;44.994;1.796;2024-02-26T01:10:01;7.70;99.90
45283;DHT22;31023;44.994;1.796;2024-02-26T01:12:27;7.60;99.90
45283;DHT22;31023;44.994;1.796;2024-02-26T01:14:53;7.60;99.90
45283;DHT22;31023;44.994;1.796;2024-02-26T01:17:18;7.60;99.90
45283;DHT22;31023;44.994;1.796;2024-02-26T01:19:44;7.60;99.90
45283;DHT22;31023;44.994;1.796;2024-02-26T01:22:09;7.70;99.90
45283;DHT22;31023;44.994;1.796;2024-02-26T01:24:35;7.80;99.90
45283;DHT22;31023;44.994;1.796;2024-02-26T01:27:00;7.90;99.90
45283;DHT22;31023;44.994;1.796;2024-02-26T01:29:26;7.90;99.90
45283;DHT22;31023;44.994;1.796;2024-02-26T01:31:51;7.90;99.90
45283;DHT22;31023;44.994;1.796;2024-02-26T01:34:17;7.90;99.90
45283;DHT22;31023;44.994;1.796;2024-02-26T01:36:43;7.90;99.90
45283;DHT22;31023;44.994;1.796;2024-02-26T01:39:09;7.90;99.90
45283;DHT22;31023;44.994;1.796;2024-02-26T01:41:38;7.90;99.90
45283;DHT22;31023;44.994;1.796;2024-02-26T01:44:03;7.90;99.90
45283;DHT22;31023;44.994;1.796;2024-02-26T01:46:29;7.90;99.90
45283;DHT22;31023;44.994;1.796;2024-02-26T01:48:55;7.90;99.90
45283;DHT22;31023;44.994;1.796;2024-02-26T01:51:21;7.90;99.90
45283;DHT22;31023;44.994;1.796;2024-02-26T01:53:47;7.90;99.90
45283;DHT22;31023;44.994;1.796;2024-02-26T01:56:12;7.90;99.90
45283;DHT22;31023;44.994;1.796;2024-02-26T01:58:38;7.90;99.90
45283;DHT22;31023;44.994;1.796;2024-02-26T02:01:04;8.00;99.90
45283;DHT22;31023;44.994;1.796;2024-02-26T02:03:30;7.90;99.90
45283;DHT22;31023;44.994;1.796;2024-02-26T02:05:56;8.00;99.90
45283;DHT22;31023;44.994;1.796;2024-02-26T02:08:21;7.90;99.90
45283;DHT22;31023;44.994;1.796;2024-02-26T02:10:47;7.90;99.90
45283;DHT22;31023;44.994;1.796;2024-02-26T02:13:14;7.90;99.90
45283;DHT22;31023;44.994;1.796;2024-02-26T02:15:39;8.00;99.90
45283;DHT22;31023;44.994;1.796;2024-02-26T02:18:05;8.00;99.90
45283;DHT22;31023;44.994;1.796;2024-02-26T02:20:32;7.90;99.90
45283;DHT22;31023;44.994;1.796;2024-02-26T02:22:58;7.90;99.90
45283;DHT22;31023;44.994;1.796;2024-02-26T02:25:23;7.90;99.90
45283;DHT22;31023;44.994;1.796;2024-02-26T02:27:49;7.90;99.90
45283;DHT22;31023;44.994;1.796;2024-02-26T02:30:15;8.00;99.90
45283;DHT22;31023;44.994;1.796;2024-02-26T02:32:41;8.00;99.90
45283;DHT22;31023;44.994;1.796;2024-02-26T02:35:07;7.90;99.90
45283;DHT22;31023;44.994;1.796;2024-02-26T02:37:33;8.00;99.90
45283;DHT22;31023;44.994;1.796;2024-02-26T02:39:59;7.90;99.90
45283;DHT22;31023;44.994;1.796;2024-02-26T02:42:25;7.90;99.90
45283;DHT22;31023;44.994;1.796;2024-02-26T02:44:51;7.90;99.90
45283;DHT22;31023;44.994;1.796;2024-02-26T02:47:16;7.90;99.90
45283;DHT22;31023;44.994;1.796;2024-02-26T02:49:42;7.90;99.90
45283;DHT22;31023;44.994;1.796;2024-02-26T02:52:07;8.00;99.90
45283;DHT22;31023;44.994;1.796;2024-02-26T02:54:33;7.90;99.90
45283;DHT22;31023;44.994;1.796;2024-02-26T02:56:58;8.00;99.90
45283;DHT22;31023;44.994;1.796;2024-02-26T02:59:25;7.90;99.90
45283;DHT22;31023;44.994;1.796;2024-02-26T03:01:50;7.90;99.90
45283;DHT22;31023;44.994;1.796;2024-02-26T03:04:16;7.90;99.90
45283;DHT22;31023;44.994;1.796;2024-02-26T03:06:41;7.90;99.90
45283;DHT22;31023;44.994;1.796;2024-02-26T03:09:07;8.00;99.90
45283;DHT22;31023;44.994;1.796;2024-02-26T03:11:32;8.00;99.90
45283;DHT22;31023;44.994;1.796;2024-02-26T03:13:58;8.00;99.90
45283;DHT22;31023;44.994;1.796;2024-02-26T03:16:23;7.90;99.90
45283;DHT22;31023;44.994;1.796;2024-02-26T03:18:49;7.90;99.90
45283;DHT22;31023;44.994;1.796;2024-02-26T03:21:14;7.90;99.90
45283;DHT22;31023;44.994;1.796;2024-02-26T03:23:40;7.90;99.90
45283;DHT22;31023;44.994;1.796;2024-02-26T03:26:06;7.90;99.90
45283;DHT22;31023;44.994;1.796;2024-02-26T03:28:31;7.90;99.90
45283;DHT22;31023;44.994;1.796;2024-02-26T03:31:01;7.90;99.90
45283;DHT22;31023;44.994;1.796;2024-02-26T03:33:27;7.90;99.90
45283;DHT22;31023;44.994;1.796;2024-02-26T03:35:53;8.00;99.90
45283;DHT22;31023;44.994;1.796;2024-02-26T03:38:18;7.90;99.90
45283;DHT22;31023;44.994;1.796;2024-02-26T03:40:44;7.90;99.90
45283;DHT22;31023;44.994;1.796;2024-02-26T03:43:09;7.90;99.90
45283;DHT22;31023;44.994;1.796;2024-02-26T03:45:35;7.90;99.90
45283;DHT22;31023;44.994;1.796;2024-02-26T03:48:00;7.90;99.90
45283;DHT22;31023;44.994;1.796;2024-02-26T03:50:26;7.90;99.90
45283;DHT22;31023;44.994;1.796;2024-02-26T03:52:51;7.90;99.90
45283;DHT22;31023;44.994;1.796;2024-02-26T03:55:17;7.90;99.90
45283;DHT22;31023;44.994;1.796;2024-02-26T03:57:46;7.90;99.90
45283;DHT22;31023;44.994;1.796;2024-02-26T04:00:12;7.90;99.90
45283;DHT22;31023;44.994;1.796;2024-02-26T04:02:37;7.80;99.90
45283;DHT22;31023;44.994;1.796;2024-02-26T04:05:03;7.90;99.90
45283;DHT22;31023;44.994;1.796;2024-02-26T04:07:29;7.90;99.90
45283;DHT22;31023;44.994;1.796;2024-02-26T04:09:55;7.90;99.90
45283;DHT22;31023;44.994;1.796;2024-02-26T04:12:20;7.90;99.90
45283;DHT22;31023;44.994;1.796;2024-02-26T04:14:46;7.90;99.90
45283;DHT22;31023;44.994;1.796;2024-02-26T04:17:11;7.80;99.90
45283;DHT22;31023;44.994;1.796;2024-02-26T04:19:37;7.90;99.90
45283;DHT22;31023;44.994;1.796;2024-02-26T04:22:02;7.90;99.90
45283;DHT22;31023;44.994;1.796;2024-02-26T04:24:28;7.90;99.90
45283;DHT22;31023;44.994;1.796;2024-02-26T04:26:53;7.90;99.90
45283;DHT22;31023;44.994;1.796;2024-02-26T04:29:19;7.90;99.90
45283;DHT22;31023;44.994;1.796;2024-02-26T04:31:44;7.90;99.90
45283;DHT22;31023;44.994;1.796;2024-02-26T04:34:12;8.00;99.90
45283;DHT22;31023;44.994;1.796;2024-02-26T04:36:37;7.90;99.90
45283;DHT22;31023;44.994;1.796;2024-02-26T04:39:03;8.00;99.90
45283;DHT22;31023;44.994;1.796;2024-02-26T04:41:28;8.00;99.90
45283;DHT22;31023;44.994;1.796;2024-02-26T04:43:54;7.90;99.90
45283;DHT22;31023;44.994;1.796;2024-02-26T04:46:19;7.90;99.90
45283;DHT22;31023;44.994;1.796;2024-02-26T04:48:47;7.90;99.90
45283;DHT22;31023;44.994;1.796;2024-02-26T04:51:12;7.90;99.90
45283;DHT22;31023;44.994;1.796;2024-02-26T04:53:38;7.90;99.90
45283;DHT22;31023;44.994;1.796;2024-02-26T04:56:04;7.90;99.90
45283;DHT22;31023;44.994;1.796;2024-02-26T04:58:29;7.90;99.90
45283;DHT22;31023;44.994;1.796;2024-02-26T05:00:55;7.90;99.90
45283;DHT22;31023;44.994;1.796;2024-02-26T05:03:21;7.90;99.90
45283;DHT22;31023;44.994;1.796;2024-02-26T05:05:46;7.90;99.90
45283;DHT22;31023;44.994;1.796;2024-02-26T05:08:12;7.90;99.90
45283;DHT22;31023;44.994;1.796;2024-02-26T05:10:37;7.90;99.90
45283;DHT22;31023;44.994;1.796;2024-02-26T05:13:04;7.90;99.90
45283;DHT22;31023;44.994;1.796;2024-02-26T05:15:30;7.90;99.90
45283;DHT22;31023;44.994;1.796;2024-02-26T05:17:55;7.90;99.90
45283;DHT22;31023;44.994;1.796;2024-02-26T05:20:21;7.90;99.90
45283;DHT22;31023;44.994;1.796;2024-02-26T05:22:47;7.90;99.90
45283;DHT22;31023;44.994;1.796;2024-02-26T05:25:16;7.80;99.90
45283;DHT22;31023;44.994;1.796;2024-02-26T05:27:43;7.90;99.90
45283;DHT22;31023;44.994;1.796;2024-02-26T05:30:09;7.80;99.90
45283;DHT22;31023;44.994;1.796;2024-02-26T05:32:34;7.90;99.90
45283;DHT22;31023;44.994;1.796;2024-02-26T05:35:00;7.90;99.90
45283;DHT22;31023;44.994;1.796;2024-02-26T05:37:25;7.80;99.90
45283;DHT22;31023;44.994;1.796;2024-02-26T05:39:51;7.80;99.90
45283;DHT22;31023;44.994;1.796;2024-02-26T05:42:17;7.70;99.90
45283;DHT22;31023;44.994;1.796;2024-02-26T05:44:43;7.60;99.90
45283;DHT22;31023;44.994;1.796;2024-02-26T05:47:08;7.50;99.90
45283;DHT22;31023;44.994;1.796;2024-02-26T05:49:34;7.50;99.90
45283;DHT22;31023;44.994;1.796;2024-02-26T05:51:59;7.50;99.90
45283;DHT22;31023;44.994;1.796;2024-02-26T05:54:25;7.60;99.90
45283;DHT22;31023;44.994;1.796;2024-02-26T05:56:50;7.60;99.90
45283;DHT22;31023;44.994;1.796;2024-02-26T05:59:16;7.60;99.90
45283;DHT22;31023;44.994;1.796;2024-02-26T06:01:41;7.60;99.90
45283;DHT22;31023;44.994;1.796;2024-02-26T06:04:07;7.60;99.90
45283;DHT22;31023;44.994;1.796;2024-02-26T06:06:32;7.60;99.90
45283;DHT22;31023;44.994;1.796;2024-02-26T06:08:58;7.60;99.90
45283;DHT22;31023;44.994;1.796;2024-02-26T06:11:23;7.70;99.90
45283;DHT22;31023;44.994;1.796;2024-02-26T06:13:49;7.70;99.90
45283;DHT22;31023;44.994;1.796;2024-02-26T06:16:14;7.70;99.90
45283;DHT22;31023;44.994;1.796;2024-02-26T06:18:40;7.70;99.90
45283;DHT22;31023;44.994;1.796;2024-02-26T06:21:08;7.60;99.90
45283;DHT22;31023;44.994;1.796;2024-02-26T06:23:34;7.60;99.90
45283;DHT22;31023;44.994;1.796;2024-02-26T06:25:59;7.60;99.90
45283;DHT22;31023;44.994;1.796;2024-02-26T06:28:25;7.50;99.90
45283;DHT22;31023;44.994;1.796;2024-02-26T06:30:50;7.50;99.90
45283;DHT22;31023;44.994;1.796;2024-02-26T06:33:17;7.50;99.90
45283;DHT22;31023;44.994;1.796;2024-02-26T06:35:43;7.60;99.90
45283;DHT22;31023;44.994;1.796;2024-02-26T06:38:09;7.70;99.90
45283;DHT22;31023;44.994;1.796;2024-02-26T06:40:36;7.60;99.90
45283;DHT22;31023;44.994;1.796;2024-02-26T06:43:02;7.60;99.90
45283;DHT22;31023;44.994;1.796;2024-02-26T06:45:28;7.60;99.90
45283;DHT22;31023;44.994;1.796;2024-02-26T06:47:53;7.60;99.90
45283;DHT22;31023;44.994;1.796;2024-02-26T06:50:19;7.60;99.90
45283;DHT22;31023;44.994;1.796;2024-02-26T06:52:44;7.50;99.90
45283;DHT22;31023;44.994;1.796;2024-02-26T06:55:11;7.60;99.90
45283;DHT22;31023;44.994;1.796;2024-02-26T06:57:37;7.60;99.90
45283;DHT22;31023;44.994;1.796;2024-02-26T07:00:03;7.60;99.90
45283;DHT22;31023;44.994;1.796;2024-02-26T07:02:29;7.60;99.90
45283;DHT22;31023;44.994;1.796;2024-02-26T07:04:54;7.60;99.90
45283;DHT22;31023;44.994;1.796;2024-02-26T07:07:21;7.60;99.90
45283;DHT22;31023;44.994;1.796;2024-02-26T07:09:48;7.60;99.90
45283;DHT22;31023;44.994;1.796;2024-02-26T07:12:14;7.60;99.90
45283;DHT22;31023;44.994;1.796;2024-02-26T07:14:41;7.60;99.90
45283;DHT22;31023;44.994;1.796;2024-02-26T07:17:07;7.60;99.90
45283;DHT22;31023;44.994;1.796;2024-02-26T07:19:33;7.60;99.90
45283;DHT22;31023;44.994;1.796;2024-02-26T07:21:59;7.60;99.90
45283;DHT22;31023;44.994;1.796;2024-02-26T07:24:27;7.60;99.90
45283;DHT22;31023;44.994;1.796;2024-02-26T07:26:52;7.60;99.90
45283;DHT22;31023;44.994;1.796;2024-02-26T07:29:19;7.70;99.90
45283;DHT22;31023;44.994;1.796;2024-02-26T07:31:45;7.70;99.90
45283;DHT22;31023;44.994;1.796;2024-02-26T07:34:11;7.70;99.90
45283;DHT22;31023;44.994;1.796;2024-02-26T07:36:36;7.80;99.90
45283;DHT22;31023;44.994;1.796;2024-02-26T07:39:02;7.80;99.90
45283;DHT22;31023;44.994;1.796;2024-02-26T07:41:28;7.70;99.90
45283;DHT22;31023;44.994;1.796;2024-02-26T07:43:53;7.90;99.90
45283;DHT22;31023;44.994;1.796;2024-02-26T07:46:19;7.80;99.90
45283;DHT22;31023;44.994;1.796;2024-02-26T07:48:44;7.80;99.90
45283;DHT22;31023;44.994;1.796;2024-02-26T07:51:12;7.80;99.90
45283;DHT22;31023;44.994;1.796;2024-02-26T07:53:37;7.80;99.90
45283;DHT22;31023;44.994;1.796;2024-02-26T07:56:03;7.80;99.90
45283;DHT22;31023;44.994;1.796;2024-02-26T07:58:29;7.80;99.90
45283;DHT22;31023;44.994;1.796;2024-02-26T08:00:54;7.90;99.90
45283;DHT22;31023;44.994;1.796;2024-02-26T08:03:20;8.00;99.90
45283;DHT22;31023;44.994;1.796;2024-02-26T08:05:45;8.00;99.90
45283;DHT22;31023;44.994;1.796;2024-02-26T08:08:11;7.90;99.90
45283;DHT22;31023;44.994;1.796;2024-02-26T08:10:36;7.90;99.90
45283;DHT22;31023;44.994;1.796;2024-02-26T08:13:02;7.90;99.90
45283;DHT22;31023;44.994;1.796;2024-02-26T08:15:31;8.00;99.90
45283;DHT22;31023;44.994;1.796;2024-02-26T08:17:56;8.10;99.90
45283;DHT22;31023;44.994;1.796;2024-02-26T08:20:22;8.00;99.90
45283;DHT22;31023;44.994;1.796;2024-02-26T08:22:47;8.00;99.90
45283;DHT22;31023;44.994;1.796;2024-02-26T08:25:13;8.30;99.90
45283;DHT22;31023;44.994;1.796;2024-02-26T08:27:39;8.60;99.90
45283;DHT22;31023;44.994;1.796;2024-02-26T08:30:05;8.70;99.90
45283;DHT22;31023;44.994;1.796;2024-02-26T08:32:30;8.40;99.90
45283;DHT22;31023;44.994;1.796;2024-02-26T08:34:56;8.30;99.90
45283;DHT22;31023;44.994;1.796;2024-02-26T08:37:22;8.30;99.90
45283;DHT22;31023;44.994;1.796;2024-02-26T08:39:47;8.20;99.90
45283;DHT22;31023;44.994;1.796;2024-02-26T08:42:13;8.20;99.90
45283;DHT22;31023;44.994;1.796;2024-02-26T08:44:38;8.20;99.90
45283;DHT22;31023;44.994;1.796;2024-02-26T08:47:04;8.30;99.90
45283;DHT22;31023;44.994;1.796;2024-02-26T08:49:29;8.40;99.90
45283;DHT22;31023;44.994;1.796;2024-02-26T08:51:55;8.60;99.90
45283;DHT22;31023;44.994;1.796;2024-02-26T08:54:21;8.60;99.90
45283;DHT22;31023;44.994;1.796;2024-02-26T08:56:46;8.50;99.90
45283;DHT22;31023;44.994;1.796;2024-02-26T08:59:12;8.60;99.90
45283;DHT22;31023;44.994;1.796;2024-02-26T09:01:38;8.50;99.90
45283;DHT22;31023;44.994;1.796;2024-02-26T09:04:03;8.40;99.90
45283;DHT22;31023;44.994;1.796;2024-02-26T09:06:29;8.30;99.90
45283;DHT22;31023;44.994;1.796;2024-02-26T09:08:54;8.10;99.90
45283;DHT22;31023;44.994;1.796;2024-02-26T09:11:21;8.10;99.90
45283;DHT22;31023;44.994;1.796;2024-02-26T09:13:46;8.10;99.90
45283;DHT22;31023;44.994;1.796;2024-02-26T09:16:12;8.00;99.90
45283;DHT22;31023;44.994;1.796;2024-02-26T09:18:38;8.00;99.90
45283;DHT22;31023;44.994;1.796;2024-02-26T09:21:04;8.10;99.90
45283;DHT22;31023;44.994;1.796;2024-02-26T09:23:30;8.00;99.90
45283;DHT22;31023;44.994;1.796;2024-02-26T09:25:55;8.00;99.90
45283;DHT22;31023;44.994;1.796;2024-02-26T09:28:21;8.20;99.90
45283;DHT22;31023;44.994;1.796;2024-02-26T09:30:46;8.20;99.90
45283;DHT22;31023;44.994;1.796;2024-02-26T09:33:13;8.20;99.90
45283;DHT22;31023;44.994;1.796;2024-02-26T09:35:39;8.10;99.90
45283;DHT22;31023;44.994;1.796;2024-02-26T09:38:04;8.00;99.90
45283;DHT22;31023;44.994;1.796;2024-02-26T09:40:30;7.90;99.90
45283;DHT22;31023;44.994;1.796;2024-02-26T09:42:59;8.10;99.90
45283;DHT22;31023;44.994;1.796;2024-02-26T09:45:25;8.20;99.90
45283;DHT22;31023;44.994;1.796;2024-02-26T09:47:51;8.30;99.90
45283;DHT22;31023;44.994;1.796;2024-02-26T09:50:16;8.30;99.90
45283;DHT22;31023;44.994;1.796;2024-02-26T09:52:43;8.50;99.90
45283;DHT22;31023;44.994;1.796;2024-02-26T09:55:08;8.50;99.90
45283;DHT22;31023;44.994;1.796;2024-02-26T09:57:36;8.40;99.90
45283;DHT22;31023;44.994;1.796;2024-02-26T10:00:02;8.30;99.90
45283;DHT22;31023;44.994;1.796;2024-02-26T10:02:30;8.60;99.90
45283;DHT22;31023;44.994;1.796;2024-02-26T10:04:56;8.80;99.90
45283;DHT22;31023;44.994;1.796;2024-02-26T10:07:23;8.90;99.90
45283;DHT22;31023;44.994;1.796;2024-02-26T10:09:48;8.90;99.90
45283;DHT22;31023;44.994;1.796;2024-02-26T10:12:14;8.70;99.90
45283;DHT22;31023;44.994;1.796;2024-02-26T10:14:41;8.60;99.90
45283;DHT22;31023;44.994;1.796;2024-02-26T10:17:07;8.50;99.90
45283;DHT22;31023;44.994;1.796;2024-02-26T10:19:33;8.80;99.90
45283;DHT22;31023;44.994;1.796;2024-02-26T10:22:00;8.60;99.90
45283;DHT22;31023;44.994;1.796;2024-02-26T10:24:26;8.60;99.90
45283;DHT22;31023;44.994;1.796;2024-02-26T10:26:52;8.80;99.90
45283;DHT22;31023;44.994;1.796;2024-02-26T10:29:19;8.90;99.90
45283;DHT22;31023;44.994;1.796;2024-02-26T10:31:45;9.10;99.90
45283;DHT22;31023;44.994;1.796;2024-02-26T10:34:10;9.20;99.90
45283;DHT22;31023;44.994;1.796;2024-02-26T10:36:36;9.40;99.90
45283;DHT22;31023;44.994;1.796;2024-02-26T10:39:03;9.90;99.90
45283;DHT22;31023;44.994;1.796;2024-02-26T10:41:30;10.00;99.90
45283;DHT22;31023;44.994;1.796;2024-02-26T10:43:55;9.70;99.90
45283;DHT22;31023;44.994;1.796;2024-02-26T10:46:21;10.00;99.90
45283;DHT22;31023;44.994;1.796;2024-02-26T10:48:50;10.70;99.90
45283;DHT22;31023;44.994;1.796;2024-02-26T10:51:16;11.20;99.90
45283;DHT22;31023;44.994;1.796;2024-02-26T10:53:43;10.70;99.90
45283;DHT22;31023;44.994;1.796;2024-02-26T10:56:10;10.00;99.90
45283;DHT22;31023;44.994;1.796;2024-02-26T10:58:36;9.40;99.90
45283;DHT22;31023;44.994;1.796;2024-02-26T11:01:02;9.50;99.90
45283;DHT22;31023;44.994;1.796;2024-02-26T11:03:28;9.40;99.90
45283;DHT22;31023;44.994;1.796;2024-02-26T11:05:57;9.20;99.90
45283;DHT22;31023;44.994;1.796;2024-02-26T11:08:23;9.40;99.90
45283;DHT22;31023;44.994;1.796;2024-02-26T11:10:51;9.40;99.90
45283;DHT22;31023;44.994;1.796;2024-02-26T11:13:18;9.60;99.90
45283;DHT22;31023;44.994;1.796;2024-02-26T11:15:44;9.70;99.90
45283;DHT22;31023;44.994;1.796;2024-02-26T11:18:12;9.80;99.90
45283;DHT22;31023;44.994;1.796;2024-02-26T11:20:38;9.60;99.90
45283;DHT22;31023;44.994;1.796;2024-02-26T11:23:05;9.40;99.90
45283;DHT22;31023;44.994;1.796;2024-02-26T11:25:32;9.20;99.90
45283;DHT22;31023;44.994;1.796;2024-02-26T11:28:01;9.20;99.90
45283;DHT22;31023;44.994;1.796;2024-02-26T11:30:29;9.40;99.90
45283;DHT22;31023;44.994;1.796;2024-02-26T11:32:55;9.50;99.90
45283;DHT22;31023;44.994;1.796;2024-02-26T11:35:21;9.80;99.90
45283;DHT22;31023;44.994;1.796;2024-02-26T11:37:51;9.50;99.90
45283;DHT22;31023;44.994;1.796;2024-02-26T11:40:18;9.40;99.90
45283;DHT22;31023;44.994;1.796;2024-02-26T11:42:44;9.10;99.90
45283;DHT22;31023;44.994;1.796;2024-02-26T11:47:57;8.80;99.90
45283;DHT22;31023;44.994;1.796;2024-02-26T11:50:35;8.60;99.90
45283;DHT22;31023;44.994;1.796;2024-02-26T11:55:45;8.50;99.90
45283;DHT22;31023;44.994;1.796;2024-02-26T11:58:10;8.50;99.90
45283;DHT22;31023;44.994;1.796;2024-02-26T12:00:36;8.60;99.90
45283;DHT22;31023;44.994;1.796;2024-02-26T12:03:02;8.60;99.90
45283;DHT22;31023;44.994;1.796;2024-02-26T12:05:31;8.50;99.90
45283;DHT22;31023;44.994;1.796;2024-02-26T12:08:03;8.40;99.90
45283;DHT22;31023;44.994;1.796;2024-02-26T12:10:40;8.30;99.90
45283;DHT22;31023;44.994;1.796;2024-02-26T12:13:11;8.40;99.90
45283;DHT22;31023;44.994;1.796;2024-02-26T12:15:44;8.40;99.90
45283;DHT22;31023;44.994;1.796;2024-02-26T12:18:12;8.40;99.90
45283;DHT22;31023;44.994;1.796;2024-02-26T12:20:40;8.40;99.90
45283;DHT22;31023;44.994;1.796;2024-02-26T12:23:06;8.40;99.90
45283;DHT22;31023;44.994;1.796;2024-02-26T12:25:32;8.40;99.90
45283;DHT22;31023;44.994;1.796;2024-02-26T12:27:58;8.30;99.90
45283;DHT22;31023;44.994;1.796;2024-02-26T12:30:24;8.50;99.90
45283;DHT22;31023;44.994;1.796;2024-02-26T12:32:55;8.40;99.90
45283;DHT22;31023;44.994;1.796;2024-02-26T12:35:23;8.50;99.90
45283;DHT22;31023;44.994;1.796;2024-02-26T12:37:49;8.60;99.90
45283;DHT22;31023;44.994;1.796;2024-02-26T12:40:16;8.50;99.90
45283;DHT22;31023;44.994;1.796;2024-02-26T12:42:42;8.20;99.90
45283;DHT22;31023;44.994;1.796;2024-02-26T12:45:09;8.00;99.90
45283;DHT22;31023;44.994;1.796;2024-02-26T12:47:35;7.90;99.90
45283;DHT22;31023;44.994;1.796;2024-02-26T12:50:01;8.00;99.90
45283;DHT22;31023;44.994;1.796;2024-02-26T12:52:26;8.00;99.90
45283;DHT22;31023;44.994;1.796;2024-02-26T12:54:52;8.10;99.90
45283;DHT22;31023;44.994;1.796;2024-02-26T12:57:17;8.20;99.90
45283;DHT22;31023;44.994;1.796;2024-02-26T12:59:43;8.10;99.90
45283;DHT22;31023;44.994;1.796;2024-02-26T13:02:08;8.10;99.90
45283;DHT22;31023;44.994;1.796;2024-02-26T13:04:34;8.10;99.90
45283;DHT22;31023;44.994;1.796;2024-02-26T13:07:02;8.10;99.90
45283;DHT22;31023;44.994;1.796;2024-02-26T13:09:31;8.30;99.90
45283;DHT22;31023;44.994;1.796;2024-02-26T13:11:57;8.50;99.90
45283;DHT22;31023;44.994;1.796;2024-02-26T13:14:23;8.70;99.90
45283;DHT22;31023;44.994;1.796;2024-02-26T13:16:57;8.70;99.90
45283;DHT22;31023;44.994;1.796;2024-02-26T13:19:23;8.90;99.90
45283;DHT22;31023;44.994;1.796;2024-02-26T13:21:49;9.10;99.90
45283;DHT22;31023;44.994;1.796;2024-02-26T13:24:15;9.20;99.90
45283;DHT22;31023;44.994;1.796;2024-02-26T13:26:40;9.10;99.90
45283;DHT22;31023;44.994;1.796;2024-02-26T13:29:06;9.00;99.90
45283;DHT22;31023;44.994;1.796;2024-02-26T13:31:32;8.90;99.90
45283;DHT22;31023;44.994;1.796;2024-02-26T13:34:03;8.90;99.90
45283;DHT22;31023;44.994;1.796;2024-02-26T13:36:29;9.10;99.90
45283;DHT22;31023;44.994;1.796;2024-02-26T13:38:55;9.20;99.90
45283;DHT22;31023;44.994;1.796;2024-02-26T13:41:21;9.20;99.90
45283;DHT22;31023;44.994;1.796;2024-02-26T13:43:47;9.20;99.90
45283;DHT22;31023;44.994;1.796;2024-02-26T13:46:12;9.10;99.90
45283;DHT22;31023;44.994;1.796;2024-02-26T13:48:40;9.20;99.90
45283;DHT22;31023;44.994;1.796;2024-02-26T13:51:06;9.40;99.90
45283;DHT22;31023;44.994;1.796;2024-02-26T13:53:32;9.50;99.90
45283;DHT22;31023;44.994;1.796;2024-02-26T13:55:57;9.40;99.90
45283;DHT22;31023;44.994;1.796;2024-02-26T13:58:24;9.40;99.90
45283;DHT22;31023;44.994;1.796;2024-02-26T14:00:50;9.30;99.90
45283;DHT22;31023;44.994;1.796;2024-02-26T14:03:16;9.20;99.90
45283;DHT22;31023;44.994;1.796;2024-02-26T14:05:41;9.30;99.90
45283;DHT22;31023;44.994;1.796;2024-02-26T14:08:07;9.20;99.90
45283;DHT22;31023;44.994;1.796;2024-02-26T14:10:33;9.20;99.90
45283;DHT22;31023;44.994;1.796;2024-02-26T14:12:58;9.10;99.90
45283;DHT22;31023;44.994;1.796;2024-02-26T14:15:24;9.10;99.90
45283;DHT22;31023;44.994;1.796;2024-02-26T14:17:51;9.10;99.90
45283;DHT22;31023;44.994;1.796;2024-02-26T14:20:24;9.20;99.90
45283;DHT22;31023;44.994;1.796;2024-02-26T14:22:50;9.20;99.90
45283;DHT22;31023;44.994;1.796;2024-02-26T14:25:18;9.20;99.90
45283;DHT22;31023;44.994;1.796;2024-02-26T14:27:45;9.20;99.90
45283;DHT22;31023;44.994;1.796;2024-02-26T14:30:11;9.10;99.90
45283;DHT22;31023;44.994;1.796;2024-02-26T14:32:37;9.10;99.90
45283;DHT22;31023;44.994;1.796;2024-02-26T14:35:04;8.90;99.90
45283;DHT22;31023;44.994;1.796;2024-02-26T14:37:30;9.10;99.90
45283;DHT22;31023;44.994;1.796;2024-02-26T14:39:55;9.10;99.90
45283;DHT22;31023;44.994;1.796;2024-02-26T14:42:21;9.20;99.90
45283;DHT22;31023;44.994;1.796;2024-02-26T14:44:49;9.40;99.90
45283;DHT22;31023;44.994;1.796;2024-02-26T14:47:16;9.20;99.90
45283;DHT22;31023;44.994;1.796;2024-02-26T14:49:41;9.20;99.90
45283;DHT22;31023;44.994;1.796;2024-02-26T14:52:07;9.20;99.90
45283;DHT22;31023;44.994;1.796;2024-02-26T14:54:33;9.20;99.90
45283;DHT22;31023;44.994;1.796;2024-02-26T14:57:05;9.10;99.90
45283;DHT22;31023;44.994;1.796;2024-02-26T14:59:32;8.90;99.90
45283;DHT22;31023;44.994;1.796;2024-02-26T15:01:58;8.90;99.90
45283;DHT22;31023;44.994;1.796;2024-02-26T15:04:25;8.80;99.90
45283;DHT22;31023;44.994;1.796;2024-02-26T15:06:51;8.60;99.90
45283;DHT22;31023;44.994;1.796;2024-02-26T15:09:17;8.40;99.90
45283;DHT22;31023;44.994;1.796;2024-02-26T15:11:43;8.30;99.90
45283;DHT22;31023;44.994;1.796;2024-02-26T15:14:09;8.20;99.90
45283;DHT22;31023;44.994;1.796;2024-02-26T15:16:36;8.20;99.90
45283;DHT22;31023;44.994;1.796;2024-02-26T15:19:01;8.40;99.90
45283;DHT22;31023;44.994;1.796;2024-02-26T15:21:28;8.60;99.90
45283;DHT22;31023;44.994;1.796;2024-02-26T15:23:54;9.10;99.90
45283;DHT22;31023;44.994;1.796;2024-02-26T15:26:19;9.00;99.90
45283;DHT22;31023;44.994;1.796;2024-02-26T15:28:45;8.90;99.90
45283;DHT22;31023;44.994;1.796;2024-02-26T15:31:11;9.00;99.90
45283;DHT22;31023;44.994;1.796;2024-02-26T15:33:37;9.00;99.90
45283;DHT22;31023;44.994;1.796;2024-02-26T15:36:03;8.70;99.90
45283;DHT22;31023;44.994;1.796;2024-02-26T15:38:28;8.70;99.90
45283;DHT22;31023;44.994;1.796;2024-02-26T15:40:55;8.80;99.90
45283;DHT22;31023;44.994;1.796;2024-02-26T15:43:20;8.90;99.90